createdAt,value
2023-12-30T00:01:53.251Z,41.28
2023-12-30T00:04:55.349Z,44.20
2023-12-30T00:07:57.390Z,44.00
2023-12-30T00:10:59.419Z,48.85
2023-12-30T00:14:01.450Z,48.75
2023-12-30T00:17:03.597Z,47.47
2023-12-30T00:20:06.884Z,46.53
2023-12-30T00:23:08.968Z,41.10
2023-12-30T00:26:19.214Z,46.20
2023-12-30T00:29:21.379Z,44.78
2023-12-30T00:32:23.460Z,43.58
2023-12-30T00:35:25.491Z,41.20
2023-12-30T00:38:27.507Z,41.42
2023-12-30T00:41:30.283Z,37.90
2023-12-30T00:44:32.333Z,38.63
2023-12-30T00:47:34.495Z,42.83
2023-12-30T00:50:36.683Z,43.20
2023-12-30T00:53:38.698Z,40.47
2023-12-30T00:56:40.693Z,40.05
2023-12-30T00:59:42.706Z,36.30
2023-12-30T01:02:44.745Z,35.03
2023-12-30T01:05:47.186Z,34.20
2023-12-30T01:08:49.215Z,37.70
2023-12-30T01:11:51.396Z,35.75
2023-12-30T01:14:54.627Z,36.80
2023-12-30T01:17:56.797Z,35.45
2023-12-30T01:20:58.891Z,32.87
2023-12-30T01:24:00.928Z,35.47
2023-12-30T01:27:02.973Z,44.30
2023-12-30T01:30:05.391Z,45.78
2023-12-30T01:33:07.751Z,38.05
2023-12-30T01:36:11.352Z,34.10
2023-12-30T01:39:14.366Z,32.67
2023-12-30T01:42:16.418Z,34.55
2023-12-30T01:45:18.489Z,33.67
2023-12-30T01:48:21.924Z,34.05
2023-12-30T01:51:26.391Z,33.70
2023-12-30T01:54:29.081Z,34.47
2023-12-30T01:57:31.650Z,31.50
2023-12-30T02:00:35.596Z,34.08
2023-12-30T02:03:37.905Z,30.90
2023-12-30T02:06:43.252Z,32.93
2023-12-30T02:09:45.334Z,31.75
2023-12-30T02:12:47.522Z,32.40
2023-12-30T02:15:49.724Z,33.78
2023-12-30T02:18:52.028Z,33.47
2023-12-30T02:21:54.397Z,31.77
2023-12-30T02:25:01.028Z,31.70
2023-12-30T02:28:03.208Z,32.78
2023-12-30T02:31:06.469Z,34.38
2023-12-30T02:34:08.597Z,34.25
2023-12-30T02:37:10.657Z,34.63
2023-12-30T02:40:12.808Z,37.30
2023-12-30T02:43:15.071Z,31.95
2023-12-30T02:46:17.193Z,33.47
2023-12-30T02:49:20.457Z,32.20
2023-12-30T02:52:23.522Z,29.83
2023-12-30T02:55:25.678Z,28.15
2023-12-30T02:58:27.756Z,28.38
2023-12-30T03:01:30.941Z,30.15
2023-12-30T03:04:33.987Z,33.45
2023-12-30T03:07:38.158Z,32.83
2023-12-30T03:10:40.431Z,30.85
2023-12-30T03:13:42.565Z,35.10
2023-12-30T03:16:44.610Z,33.58
2023-12-30T03:19:47.940Z,29.40
2023-12-30T03:22:50.112Z,29.87
2023-12-30T03:25:52.343Z,33.22
2023-12-30T03:28:54.524Z,33.78
2023-12-30T03:31:56.843Z,32.97
2023-12-30T03:34:58.963Z,28.60
2023-12-30T03:38:01.086Z,28.90
2023-12-30T03:41:03.138Z,29.65
2023-12-30T03:44:05.188Z,31.98
2023-12-30T03:47:07.418Z,31.27
2023-12-30T03:50:10.155Z,30.67
2023-12-30T03:53:12.283Z,31.83
2023-12-30T03:56:14.424Z,29.13
2023-12-30T03:59:16.469Z,29.92
2023-12-30T04:02:22.161Z,29.60
2023-12-30T04:05:24.673Z,28.58
2023-12-30T04:08:26.736Z,27.67
2023-12-30T04:11:28.797Z,38.42
2023-12-30T04:14:30.864Z,31.17
2023-12-30T04:17:32.955Z,36.00
2023-12-30T04:20:35.019Z,40.40
2023-12-30T04:23:37.327Z,37.43
2023-12-30T04:26:39.346Z,29.67
2023-12-30T04:29:41.356Z,31.90
2023-12-30T04:32:43.512Z,31.85
2023-12-30T04:35:46.012Z,28.23
2023-12-30T04:38:48.082Z,31.50
2023-12-30T04:41:50.124Z,30.40
2023-12-30T04:44:52.415Z,30.42
2023-12-30T04:47:54.900Z,30.90
2023-12-30T04:50:57.228Z,28.40
2023-12-30T04:53:59.365Z,29.17
2023-12-30T04:57:02.828Z,28.15
2023-12-30T05:00:05.819Z,28.63
2023-12-30T05:03:08.690Z,28.83
2023-12-30T05:06:20.883Z,29.08
2023-12-30T05:09:22.862Z,27.27
2023-12-30T05:12:24.865Z,28.15
2023-12-30T05:15:26.854Z,27.48
2023-12-30T05:18:28.937Z,26.17
2023-12-30T05:21:31.034Z,25.17
2023-12-30T05:24:33.042Z,24.93
2023-12-30T05:27:35.046Z,25.98
2023-12-30T05:30:37.468Z,27.10
2023-12-30T05:33:40.251Z,27.77
2023-12-30T05:36:42.349Z,27.02
2023-12-30T05:39:45.453Z,25.90
2023-12-30T05:42:47.815Z,29.20
2023-12-30T05:45:50.053Z,26.65
2023-12-30T05:48:52.356Z,26.50
2023-12-30T05:51:54.733Z,25.25
2023-12-30T05:54:56.791Z,26.40
2023-12-30T05:57:58.852Z,27.80
2023-12-30T06:01:00.928Z,28.17
2023-12-30T06:04:03.851Z,29.05
2023-12-30T06:07:06.106Z,27.17
2023-12-30T06:10:08.741Z,27.27
2023-12-30T06:13:11.186Z,26.98
2023-12-30T06:16:13.263Z,27.33
2023-12-30T06:19:17.965Z,27.88
2023-12-30T06:22:20.334Z,26.73
2023-12-30T06:25:22.496Z,25.03
2023-12-30T06:28:25.779Z,25.48
2023-12-30T06:31:27.949Z,23.92
2023-12-30T06:34:30.022Z,22.30
2023-12-30T06:37:32.177Z,23.15
2023-12-30T06:40:34.371Z,24.37
2023-12-30T06:43:36.554Z,23.60
2023-12-30T06:46:38.781Z,24.80
2023-12-30T06:49:40.905Z,26.98
2023-12-30T06:52:43.047Z,29.38
2023-12-30T06:55:48.198Z,32.03
2023-12-30T06:58:53.139Z,34.58
2023-12-30T07:01:55.249Z,34.75
2023-12-30T07:04:57.315Z,36.72
2023-12-30T07:08:00.360Z,42.83
2023-12-30T07:11:02.535Z,34.13
2023-12-30T07:14:04.548Z,37.33
2023-12-30T07:17:07.570Z,38.90
2023-12-30T07:20:09.778Z,37.33
2023-12-30T07:23:11.816Z,35.00
2023-12-30T07:26:13.819Z,32.37
2023-12-30T07:29:15.847Z,29.52
2023-12-30T07:32:17.828Z,31.40
2023-12-30T07:35:19.922Z,32.33
2023-12-30T07:38:22.030Z,31.83
2023-12-30T07:41:24.223Z,28.10
2023-12-30T07:44:26.256Z,27.10
2023-12-30T07:47:28.391Z,26.45
2023-12-30T07:50:30.454Z,24.20
2023-12-30T07:53:32.732Z,25.83
2023-12-30T07:56:34.837Z,27.63
2023-12-30T07:59:36.880Z,33.10
2023-12-30T08:02:38.884Z,31.88
2023-12-30T08:05:41.050Z,24.73
2023-12-30T08:08:43.054Z,25.20
2023-12-30T08:11:50.631Z,23.23
2023-12-30T08:15:01.016Z,27.65
2023-12-30T08:18:03.359Z,72.40
2023-12-30T08:21:05.565Z,34.47
2023-12-30T08:24:08.375Z,31.77
2023-12-30T08:27:10.896Z,40.10
2023-12-30T08:30:13.115Z,28.42
2023-12-30T08:33:15.626Z,29.08
2023-12-30T08:36:17.955Z,33.80
2023-12-30T08:39:20.106Z,26.90
2023-12-30T08:42:23.299Z,29.23
2023-12-30T08:45:25.502Z,28.98
2023-12-30T08:48:27.642Z,33.55
2023-12-30T08:51:31.121Z,34.78
2023-12-30T08:54:33.281Z,29.13
2023-12-30T08:57:35.335Z,30.93
2023-12-30T09:00:37.360Z,31.20
2023-12-30T09:03:39.492Z,29.23
2023-12-30T09:06:41.673Z,37.67
2023-12-30T09:09:43.709Z,39.10
2023-12-30T09:12:46.101Z,25.63
2023-12-30T09:15:48.118Z,23.27
2023-12-30T09:18:50.222Z,24.90
2023-12-30T09:21:52.402Z,22.48
2023-12-30T09:24:55.279Z,20.08
2023-12-30T09:27:57.384Z,19.27
2023-12-30T09:30:59.577Z,21.20
2023-12-30T09:34:01.696Z,20.95
2023-12-30T09:37:03.853Z,21.45
2023-12-30T09:40:06.373Z,21.90
2023-12-30T09:43:09.077Z,21.43
2023-12-30T09:46:11.563Z,25.27
2023-12-30T09:49:14.555Z,29.75
2023-12-30T09:52:16.710Z,25.55
2023-12-30T09:55:18.851Z,31.27
2023-12-30T09:58:22.126Z,33.37
2023-12-30T10:01:24.575Z,31.57
2023-12-30T10:04:26.748Z,32.30
2023-12-30T10:07:32.896Z,34.55
2023-12-30T10:10:45.537Z,35.95
2023-12-30T10:13:47.792Z,44.50
2023-12-30T10:16:50.031Z,45.77
2023-12-30T10:19:52.100Z,79.07
2023-12-30T10:22:54.301Z,67.88
2023-12-30T10:25:56.414Z,45.45
2023-12-30T10:28:58.605Z,36.17
2023-12-30T10:32:02.148Z,25.53
2023-12-30T10:35:05.268Z,20.98
2023-12-30T10:38:10.632Z,23.40
2023-12-30T10:41:15.767Z,21.45
2023-12-30T10:44:18.052Z,19.97
2023-12-30T10:47:22.246Z,21.60
2023-12-30T10:50:25.418Z,20.42
2023-12-30T10:53:29.882Z,21.67
2023-12-30T10:56:41.073Z,22.00
2023-12-30T10:59:43.967Z,25.90
2023-12-30T11:02:48.029Z,22.20
2023-12-30T11:06:11.036Z,23.65
2023-12-30T11:09:14.804Z,21.52
2023-12-30T11:12:16.813Z,30.23
2023-12-30T11:15:25.182Z,27.20
2023-12-30T11:18:45.112Z,27.60
2023-12-30T11:21:48.389Z,36.58
2023-12-30T11:24:50.612Z,26.60
2023-12-30T11:27:53.611Z,24.38
2023-12-30T11:30:57.580Z,24.30
2023-12-30T11:34:00.243Z,23.23
2023-12-30T11:37:03.460Z,23.45
2023-12-30T11:40:06.462Z,22.90
2023-12-30T11:43:09.672Z,23.73
2023-12-30T11:46:13.122Z,22.87
2023-12-30T11:49:22.495Z,21.27
2023-12-30T11:52:24.649Z,26.70
2023-12-30T11:55:26.962Z,25.02
2023-12-30T11:58:31.872Z,29.02
2023-12-30T12:01:34.058Z,40.13
2023-12-30T12:04:37.199Z,33.83
2023-12-30T12:07:39.469Z,30.65
2023-12-30T12:10:41.652Z,32.67
2023-12-30T12:13:43.755Z,27.90
2023-12-30T12:16:46.391Z,27.57
2023-12-30T12:19:48.640Z,27.20
2023-12-30T12:22:56.790Z,28.60
2023-12-30T12:25:58.906Z,30.20
2023-12-30T12:29:00.916Z,29.25
2023-12-30T12:32:04.467Z,25.60
2023-12-30T12:35:06.845Z,24.20
2023-12-30T12:38:09.340Z,23.38
2023-12-30T12:41:11.397Z,24.67
2023-12-30T12:44:13.565Z,28.25
2023-12-30T12:47:15.657Z,25.70
2023-12-30T12:50:17.769Z,24.13
2023-12-30T12:53:19.816Z,30.02
2023-12-30T12:56:21.855Z,24.17
2023-12-30T12:59:24.012Z,22.80
2023-12-30T13:02:27.796Z,22.73
2023-12-30T13:05:29.988Z,21.67
2023-12-30T13:08:34.372Z,22.70
2023-12-30T13:11:45.957Z,22.98
2023-12-30T13:14:48.035Z,29.65
2023-12-30T13:17:50.160Z,27.93
2023-12-30T13:20:52.425Z,26.27
2023-12-30T13:23:55.101Z,35.70
2023-12-30T13:26:57.324Z,43.72
2023-12-30T13:29:59.418Z,36.30
2023-12-30T13:33:05.584Z,34.50
2023-12-30T13:36:12.810Z,30.53
2023-12-30T13:39:15.232Z,29.10
2023-12-30T13:42:18.303Z,30.88
2023-12-30T13:45:20.599Z,32.38
2023-12-30T13:48:45.280Z,30.93
2023-12-30T13:51:56.029Z,32.40
2023-12-30T13:54:58.261Z,31.52
2023-12-30T13:58:03.143Z,31.25
2023-12-30T14:01:06.801Z,37.60
2023-12-30T14:04:09.393Z,40.37
2023-12-30T14:07:17.351Z,51.63
2023-12-30T14:10:20.078Z,29.63
2023-12-30T14:13:24.261Z,26.85
2023-12-30T14:16:26.554Z,27.08
2023-12-30T14:19:28.757Z,26.77
2023-12-30T14:22:31.333Z,22.33
2023-12-30T14:25:33.592Z,24.63
2023-12-30T14:28:35.702Z,29.67
2023-12-30T14:31:37.796Z,27.83
2023-12-30T14:34:39.852Z,27.37
2023-12-30T14:37:42.793Z,32.63
2023-12-30T14:40:44.964Z,32.97
2023-12-30T14:43:51.406Z,44.20
2023-12-30T14:46:53.653Z,39.50
2023-12-30T14:49:55.739Z,26.00
2023-12-30T14:52:57.786Z,24.70
2023-12-30T14:55:59.816Z,31.50
2023-12-30T14:59:02.031Z,29.42
2023-12-30T15:02:04.188Z,47.58
2023-12-30T15:05:06.888Z,55.20
2023-12-30T15:08:09.629Z,45.77
2023-12-30T15:11:11.862Z,46.58
2023-12-30T15:14:13.974Z,62.70
2023-12-30T15:17:16.102Z,70.97
2023-12-30T15:20:19.857Z,54.60
2023-12-30T15:23:21.940Z,51.87
2023-12-30T15:26:23.978Z,57.03
2023-12-30T15:29:26.034Z,57.47
2023-12-30T15:32:28.434Z,48.75
2023-12-30T15:35:31.644Z,50.50
2023-12-30T15:38:33.836Z,151.33
2023-12-30T15:41:35.913Z,69.35
2023-12-30T15:44:39.101Z,95.20
2023-12-30T15:47:43.308Z,82.13
2023-12-30T15:50:46.267Z,99.37
2023-12-30T15:53:49.536Z,158.67
2023-12-30T15:56:53.190Z,89.32
2023-12-30T15:59:55.265Z,86.90
2023-12-30T16:02:57.495Z,40.35
2023-12-30T16:05:59.702Z,48.03
2023-12-30T16:09:01.785Z,39.23
2023-12-30T16:12:04.465Z,31.15
2023-12-30T16:15:06.926Z,32.95
2023-12-30T16:18:09.156Z,35.88
2023-12-30T16:21:13.317Z,36.97
2023-12-30T16:24:15.495Z,31.50
2023-12-30T16:27:17.510Z,27.95
2023-12-30T16:30:20.040Z,48.78
2023-12-30T16:33:22.382Z,91.95
2023-12-30T16:36:25.581Z,47.13
2023-12-30T16:39:27.625Z,44.03
2023-12-30T16:42:30.408Z,39.97
2023-12-30T16:45:32.423Z,32.75
2023-12-30T16:48:34.580Z,36.20
2023-12-30T16:51:37.806Z,38.10
2023-12-30T16:54:39.867Z,34.28
2023-12-30T16:57:41.915Z,38.45
2023-12-30T17:00:46.287Z,41.25
2023-12-30T17:03:48.439Z,72.53
2023-12-30T17:06:50.489Z,35.90
2023-12-30T17:09:52.563Z,35.43
2023-12-30T17:12:54.664Z,35.47
2023-12-30T17:15:56.751Z,34.85
2023-12-30T17:18:59.500Z,36.70
2023-12-30T17:22:01.783Z,35.07
2023-12-30T17:25:04.224Z,37.20
2023-12-30T17:28:06.445Z,35.00
2023-12-30T17:31:10.864Z,35.58
2023-12-30T17:34:13.138Z,36.97
2023-12-30T17:37:15.300Z,35.47
2023-12-30T17:40:19.266Z,36.40
2023-12-30T17:43:21.595Z,45.03
2023-12-30T17:46:23.822Z,41.25
2023-12-30T17:49:26.267Z,38.33
2023-12-30T17:52:28.342Z,45.83
2023-12-30T17:55:32.763Z,42.90
2023-12-30T17:58:35.007Z,66.72
2023-12-30T18:01:37.196Z,57.17
2023-12-30T18:04:39.298Z,83.78
2023-12-30T18:07:41.594Z,79.07
2023-12-30T18:10:43.869Z,77.57
2023-12-30T18:13:46.103Z,82.70
2023-12-30T18:16:48.209Z,81.32
2023-12-30T18:19:50.442Z,78.20
2023-12-30T18:22:53.004Z,74.37
2023-12-30T18:25:55.258Z,60.27
2023-12-30T18:28:58.160Z,62.00
2023-12-30T18:32:02.963Z,63.63
2023-12-30T18:35:05.553Z,72.50
2023-12-30T18:38:07.734Z,76.17
2023-12-30T18:41:09.831Z,82.18
2023-12-30T18:44:12.073Z,54.42
2023-12-30T18:47:14.295Z,57.30
2023-12-30T18:50:16.613Z,53.38
2023-12-30T18:53:18.934Z,41.10
2023-12-30T18:56:21.044Z,59.60
2023-12-30T18:59:23.373Z,57.22
2023-12-30T19:02:25.465Z,53.83
2023-12-30T19:05:27.750Z,38.30
2023-12-30T19:08:31.410Z,40.23
2023-12-30T19:11:33.636Z,52.57
2023-12-30T19:14:35.765Z,47.85
2023-12-30T19:17:37.863Z,57.97
2023-12-30T19:20:40.073Z,77.78
2023-12-30T19:23:42.177Z,90.97
2023-12-30T19:26:44.298Z,91.80
2023-12-30T19:29:46.669Z,126.40
2023-12-30T19:32:49.315Z,128.48
2023-12-30T19:35:52.701Z,126.38
2023-12-30T19:38:55.754Z,130.30
2023-12-30T19:41:58.215Z,121.18
2023-12-30T19:45:02.744Z,104.72
2023-12-30T19:48:05.243Z,103.03
2023-12-30T19:51:07.815Z,69.13
2023-12-30T19:54:09.847Z,81.33
2023-12-30T19:57:13.027Z,70.97
2023-12-30T20:00:15.196Z,77.53
2023-12-30T20:03:17.268Z,59.90
2023-12-30T20:06:19.427Z,52.83
2023-12-30T20:09:21.711Z,51.37
2023-12-30T20:12:23.721Z,51.78
2023-12-30T20:15:26.402Z,46.78
2023-12-30T20:18:28.602Z,56.20
2023-12-30T20:21:31.453Z,63.88
2023-12-30T20:24:33.514Z,77.97
2023-12-30T20:27:35.670Z,93.55
2023-12-30T20:30:37.766Z,88.63
2023-12-30T20:33:39.916Z,82.57
2023-12-30T20:36:42.018Z,93.15
2023-12-30T20:39:44.069Z,92.73
2023-12-30T20:42:46.145Z,97.55
2023-12-30T20:45:48.911Z,92.50
2023-12-30T20:48:51.046Z,93.68
2023-12-30T20:51:53.399Z,67.97
2023-12-30T20:54:55.480Z,74.40
2023-12-30T20:57:57.549Z,88.28
2023-12-30T21:00:59.903Z,94.35
2023-12-30T21:04:02.077Z,114.93
2023-12-30T21:07:04.819Z,108.65
2023-12-30T21:10:08.249Z,111.63
2023-12-30T21:13:10.352Z,108.60
2023-12-30T21:16:18.797Z,109.18
2023-12-30T21:19:21.126Z,110.95
2023-12-30T21:22:23.266Z,116.57
2023-12-30T21:25:27.517Z,114.67
2023-12-30T21:28:31.715Z,100.18
2023-12-30T21:31:33.861Z,90.65
2023-12-30T21:34:36.443Z,78.85
2023-12-30T21:37:42.034Z,84.47
2023-12-30T21:40:50.321Z,77.73
2023-12-30T21:43:52.584Z,68.97
2023-12-30T21:46:54.717Z,69.10
2023-12-30T21:49:56.862Z,62.10
2023-12-30T21:52:59.027Z,77.40
2023-12-30T21:56:01.087Z,66.17
2023-12-30T21:59:03.770Z,50.85
2023-12-30T22:02:06.302Z,63.58
2023-12-30T22:05:09.648Z,61.67
2023-12-30T22:08:11.733Z,63.38
2023-12-30T22:11:13.801Z,64.33
2023-12-30T22:14:15.852Z,57.53
2023-12-30T22:17:17.896Z,61.60
2023-12-30T22:20:20.020Z,57.58
2023-12-30T22:23:22.085Z,70.55
2023-12-30T22:26:24.120Z,95.13
2023-12-30T22:29:26.294Z,79.13
2023-12-30T22:32:28.419Z,79.57
2023-12-30T22:35:33.490Z,70.45
2023-12-30T22:38:36.729Z,64.10
2023-12-30T22:41:38.833Z,51.90
2023-12-30T22:44:41.100Z,54.10
2023-12-30T22:47:43.188Z,51.03
2023-12-30T22:50:46.418Z,46.20
2023-12-30T22:53:48.497Z,46.25
2023-12-30T22:56:50.582Z,46.70
2023-12-30T22:59:52.629Z,48.13
2023-12-30T23:02:55.128Z,48.47
2023-12-30T23:05:57.216Z,45.72
2023-12-30T23:08:59.438Z,46.40
2023-12-30T23:12:01.453Z,45.23
2023-12-30T23:15:03.864Z,46.47
2023-12-30T23:18:06.078Z,43.60
2023-12-30T23:21:08.142Z,45.45
2023-12-30T23:24:10.196Z,48.58
2023-12-30T23:27:12.292Z,47.70
2023-12-30T23:30:15.272Z,46.45
2023-12-30T23:33:17.624Z,45.33
2023-12-30T23:36:19.954Z,42.60
2023-12-30T23:39:22.646Z,42.78
2023-12-30T23:42:24.658Z,46.73
2023-12-30T23:45:26.920Z,59.58
2023-12-30T23:48:28.963Z,64.78
2023-12-30T23:51:31.044Z,54.17
2023-12-30T23:54:33.026Z,54.72
2023-12-30T23:57:38.348Z,46.50
